createdAt,value
2019-04-16T00:00:35.415Z,86.68
2019-04-16T00:03:02.981Z,87.14
2019-04-16T00:05:31.773Z,87.11
2019-04-16T00:08:00.818Z,86.98
2019-04-16T00:10:29.528Z,87.06
2019-04-16T00:13:04.276Z,87.09
2019-04-16T00:15:31.716Z,87.29
2019-04-16T00:17:59.083Z,87.44
2019-04-16T00:20:26.120Z,87.69
2019-04-16T00:22:55.112Z,88.09
2019-04-16T00:25:22.887Z,88.40
2019-04-16T00:27:50.414Z,88.74
2019-04-16T00:30:17.885Z,88.90
2019-04-16T00:32:45.482Z,89.27
2019-04-16T00:35:15.395Z,89.84
2019-04-16T00:37:41.942Z,89.93
2019-04-16T00:40:08.915Z,90.01
2019-04-16T00:42:35.928Z,90.42
2019-04-16T00:45:03.736Z,90.49
2019-04-16T00:47:31.586Z,90.88
2019-04-16T00:49:59.646Z,91.00
2019-04-16T00:52:27.397Z,91.20
2019-04-16T00:54:54.541Z,91.53
2019-04-16T00:57:21.566Z,92.03
2019-04-16T00:59:49.328Z,92.19
2019-04-16T01:02:16.594Z,92.12
2019-04-16T01:04:43.506Z,92.63
2019-04-16T01:07:10.446Z,92.82
2019-04-16T01:09:38.222Z,92.76
2019-04-16T01:12:05.342Z,92.72
2019-04-16T01:14:32.934Z,92.55
2019-04-16T01:17:04.078Z,92.42
2019-04-16T01:19:29.593Z,92.62
2019-04-16T01:21:57.583Z,92.70
2019-04-16T01:24:24.435Z,92.77
2019-04-16T01:26:52.176Z,92.29
2019-04-16T01:29:19.058Z,92.54
2019-04-16T01:32:04.583Z,92.56
2019-04-16T01:34:39.665Z,92.80
2019-04-16T01:37:08.587Z,93.14
2019-04-16T01:39:40.902Z,93.39
2019-04-16T01:42:07.868Z,93.31
2019-04-16T01:44:34.854Z,93.98
2019-04-16T01:47:04.285Z,94.03
2019-04-16T01:49:31.020Z,94.31
2019-04-16T01:51:57.972Z,94.37
2019-04-16T01:54:25.988Z,95.35
2019-04-16T01:56:52.845Z,95.53
2019-04-16T01:59:19.726Z,95.27
2019-04-16T02:01:46.594Z,95.26
2019-04-16T02:04:13.671Z,95.98
2019-04-16T02:06:40.664Z,96.19
2019-04-16T02:09:16.078Z,96.33
2019-04-16T02:11:38.827Z,95.89
2019-04-16T02:14:07.707Z,95.49
2019-04-16T02:16:34.667Z,96.03
2019-04-16T02:19:03.688Z,95.74
2019-04-16T02:21:31.545Z,95.44
2019-04-16T02:23:59.380Z,95.17
2019-04-16T02:26:26.475Z,94.98
2019-04-16T02:28:53.275Z,94.83
2019-04-16T02:31:21.026Z,94.63
2019-04-16T02:33:48.734Z,94.43
2019-04-16T02:36:16.176Z,94.51
2019-04-16T02:38:52.389Z,94.62
2019-04-16T02:41:12.750Z,95.50
2019-04-16T02:43:40.860Z,95.86
2019-04-16T02:46:09.111Z,95.86
2019-04-16T02:48:36.842Z,96.54
2019-04-16T02:51:08.730Z,96.55
2019-04-16T02:53:40.383Z,97.11
2019-04-16T02:56:26.267Z,97.11
2019-04-16T02:59:09.999Z,96.70
2019-04-16T03:01:45.097Z,96.32
2019-04-16T03:04:14.588Z,96.30
2019-04-16T03:06:41.889Z,96.84
2019-04-16T03:09:09.944Z,96.84
2019-04-16T03:11:37.378Z,97.11
2019-04-16T03:14:04.970Z,97.79
2019-04-16T03:16:46.307Z,98.28
2019-04-16T03:19:19.063Z,98.13
2019-04-16T03:21:44.544Z,98.27
2019-04-16T03:24:11.972Z,98.27
2019-04-16T03:26:39.308Z,97.96
2019-04-16T03:29:06.997Z,97.60
2019-04-16T03:31:34.644Z,97.35
2019-04-16T03:34:02.518Z,97.35
2019-04-16T03:36:30.475Z,97.00
2019-04-16T03:38:58.642Z,97.00
2019-04-16T03:41:26.617Z,97.30
2019-04-16T03:43:54.325Z,97.35
2019-04-16T03:46:21.355Z,97.16
2019-04-16T03:48:48.879Z,97.32
2019-04-16T03:51:15.953Z,97.32
2019-04-16T03:53:46.440Z,98.14
2019-04-16T03:56:12.833Z,98.92
2019-04-16T03:58:40.523Z,98.92
2019-04-16T04:01:07.509Z,99.83
2019-04-16T04:03:34.592Z,99.83
2019-04-16T04:06:03.518Z,100.00
2019-04-16T04:08:31.345Z,100.00
2019-04-16T04:10:58.946Z,100.00
2019-04-16T04:13:25.730Z,100.00
2019-04-16T04:15:55.016Z,100.00
2019-04-16T04:18:22.719Z,100.00
2019-04-16T04:20:50.932Z,100.00
2019-04-16T04:23:18.182Z,100.00
2019-04-16T04:25:45.071Z,100.00
2019-04-16T04:28:11.854Z,100.00
2019-04-16T04:30:39.138Z,100.00
2019-04-16T04:33:08.638Z,100.00
2019-04-16T04:35:34.935Z,100.00
2019-04-16T04:38:04.132Z,100.00
2019-04-16T04:40:43.883Z,100.00
2019-04-16T04:43:01.630Z,100.00
2019-04-16T04:45:29.419Z,100.00
2019-04-16T04:47:56.580Z,100.00
2019-04-16T04:50:23.569Z,100.00
2019-04-16T04:52:50.907Z,100.00
2019-04-16T04:55:18.542Z,100.00
2019-04-16T04:57:46.427Z,100.00
2019-04-16T05:00:13.447Z,100.00
2019-04-16T05:02:43.681Z,100.00
2019-04-16T05:05:25.570Z,100.00
2019-04-16T05:07:52.674Z,100.00
2019-04-16T05:10:20.111Z,100.00
2019-04-16T05:12:47.360Z,100.00
2019-04-16T05:15:14.906Z,100.00
2019-04-16T05:17:42.086Z,100.00
2019-04-16T05:20:09.237Z,100.00
2019-04-16T05:22:36.429Z,100.00
2019-04-16T05:25:04.369Z,100.00
2019-04-16T05:27:31.332Z,100.00
2019-04-16T05:29:58.665Z,100.00
2019-04-16T05:32:32.976Z,100.00
2019-04-16T05:34:55.212Z,100.00
2019-04-16T05:37:22.710Z,100.00
2019-04-16T05:39:50.093Z,100.00
2019-04-16T05:42:17.032Z,100.00
2019-04-16T05:44:45.418Z,100.00
2019-04-16T05:47:16.761Z,100.00
2019-04-16T05:49:42.483Z,100.00
2019-04-16T05:52:09.374Z,100.00
2019-04-16T05:54:54.372Z,100.00
2019-04-16T05:57:26.511Z,100.00
2019-04-16T05:59:52.464Z,100.00
2019-04-16T06:02:39.987Z,100.00
2019-04-16T06:05:07.639Z,100.00
2019-04-16T06:07:37.787Z,100.00
2019-04-16T06:10:07.370Z,100.00
2019-04-16T06:12:39.604Z,100.00
2019-04-16T06:15:26.482Z,100.00
2019-04-16T06:18:12.245Z,100.00
2019-04-16T06:20:44.048Z,100.00
2019-04-16T06:23:13.195Z,100.00
2019-04-16T06:25:42.147Z,100.00
2019-04-16T06:28:11.290Z,100.00
2019-04-16T06:30:46.261Z,100.00
2019-04-16T06:33:18.164Z,100.00
2019-04-16T06:35:56.392Z,100.00
2019-04-16T06:38:28.503Z,100.00
2019-04-16T06:41:04.082Z,100.00
2019-04-16T06:43:45.334Z,100.00
2019-04-16T06:46:19.690Z,100.00
2019-04-16T06:48:50.808Z,100.00
2019-04-16T06:51:37.479Z,100.00
2019-04-16T06:54:06.191Z,99.15
2019-04-16T06:56:51.205Z,99.22
2019-04-16T06:59:26.609Z,99.30
2019-04-16T07:02:02.844Z,98.72
2019-04-16T07:04:31.900Z,98.40
2019-04-16T07:07:21.583Z,98.12
2019-04-16T07:09:50.351Z,97.94
2019-04-16T07:12:19.165Z,97.84
2019-04-16T07:14:48.521Z,96.96
2019-04-16T07:17:17.863Z,95.58
2019-04-16T07:19:44.562Z,94.82
2019-04-16T07:22:12.591Z,93.33
2019-04-16T07:24:39.930Z,92.07
2019-04-16T07:27:07.713Z,90.76
2019-04-16T07:29:46.126Z,89.25
2019-04-16T07:32:29.477Z,88.60
2019-04-16T07:35:16.147Z,87.31
2019-04-16T07:38:04.919Z,85.21
2019-04-16T07:40:33.226Z,82.59
2019-04-16T07:43:02.737Z,79.47
2019-04-16T07:45:37.451Z,80.69
2019-04-16T07:48:06.983Z,80.32
2019-04-16T07:50:53.069Z,79.29
2019-04-16T07:53:38.042Z,78.74
2019-04-16T07:56:19.284Z,77.39
2019-04-16T07:58:46.035Z,75.91
2019-04-16T08:01:16.275Z,76.08
2019-04-16T08:03:42.056Z,75.06
2019-04-16T08:06:10.696Z,73.48
2019-04-16T08:08:37.846Z,72.73
2019-04-16T08:11:05.686Z,73.21
2019-04-16T08:13:34.590Z,74.03
2019-04-16T08:16:01.668Z,72.72
2019-04-16T08:18:28.738Z,72.24
2019-04-16T08:21:02.000Z,70.28
2019-04-16T08:23:32.516Z,69.46
2019-04-16T08:26:04.166Z,67.29
2019-04-16T08:28:30.043Z,66.70
2019-04-16T08:30:57.316Z,65.69
2019-04-16T08:33:28.201Z,65.53
2019-04-16T08:35:53.229Z,65.52
2019-04-16T08:38:20.391Z,64.13
2019-04-16T08:40:47.467Z,62.62
2019-04-16T08:43:14.443Z,63.38
2019-04-16T08:45:41.807Z,63.51
2019-04-16T08:48:09.802Z,62.76
2019-04-16T08:50:37.424Z,62.80
2019-04-16T08:53:04.244Z,61.18
2019-04-16T08:55:31.190Z,60.56
2019-04-16T08:57:58.131Z,57.46
2019-04-16T09:00:25.286Z,55.94
2019-04-16T09:02:52.229Z,53.25
2019-04-16T09:05:19.352Z,51.49
2019-04-16T09:07:50.730Z,51.81
2019-04-16T09:10:23.076Z,50.17
2019-04-16T09:12:50.981Z,49.06
2019-04-16T09:15:17.078Z,47.98
2019-04-16T09:17:46.526Z,47.52
2019-04-16T09:20:15.561Z,47.31
2019-04-16T09:22:49.395Z,46.09
2019-04-16T09:25:30.329Z,46.17
2019-04-16T09:28:00.772Z,44.98
2019-04-16T09:30:46.718Z,45.35
2019-04-16T09:33:30.395Z,43.50
2019-04-16T09:36:17.950Z,43.75
2019-04-16T09:38:46.761Z,44.26
2019-04-16T09:41:18.581Z,43.14
2019-04-16T09:43:57.106Z,43.56
2019-04-16T09:46:48.867Z,42.66
2019-04-16T09:48:54.297Z,42.47
2019-04-16T09:51:21.505Z,42.53
2019-04-16T09:53:49.114Z,43.20
2019-04-16T09:56:29.172Z,42.42
2019-04-16T09:58:57.526Z,41.87
2019-04-16T10:01:26.686Z,41.27
2019-04-16T10:03:54.693Z,40.55
2019-04-16T10:06:21.611Z,41.13
2019-04-16T10:08:48.564Z,40.51
2019-04-16T10:11:18.575Z,40.54
2019-04-16T10:13:45.785Z,40.39
2019-04-16T10:16:14.346Z,39.76
2019-04-16T10:18:41.379Z,39.87
2019-04-16T10:21:08.761Z,38.91
2019-04-16T10:23:43.702Z,39.65
2019-04-16T10:26:11.008Z,38.80
2019-04-16T10:28:39.692Z,39.34
2019-04-16T10:31:06.671Z,39.58
2019-04-16T10:33:33.517Z,39.61
2019-04-16T10:36:01.158Z,39.16
2019-04-16T10:38:47.376Z,38.96
2019-04-16T10:41:16.243Z,38.51
2019-04-16T10:43:57.180Z,38.71
2019-04-16T10:46:28.894Z,38.50
2019-04-16T10:49:06.409Z,38.56
2019-04-16T10:51:39.179Z,38.80
2019-04-16T10:54:20.043Z,38.60
2019-04-16T10:57:03.774Z,38.64
2019-04-16T10:59:35.637Z,37.07
2019-04-16T11:02:21.106Z,36.95
2019-04-16T11:04:49.781Z,38.05
2019-04-16T11:07:21.530Z,37.13
2019-04-16T11:09:48.985Z,37.26
2019-04-16T11:12:19.653Z,36.76
2019-04-16T11:14:45.923Z,37.46
2019-04-16T11:17:12.838Z,37.03
2019-04-16T11:19:40.229Z,36.37
2019-04-16T11:22:07.199Z,36.09
2019-04-16T11:24:34.190Z,36.03
2019-04-16T11:27:01.204Z,36.25
2019-04-16T11:29:28.560Z,35.95
2019-04-16T11:31:55.950Z,36.76
2019-04-16T11:34:22.902Z,35.26
2019-04-16T11:36:49.882Z,35.46
2019-04-16T11:39:17.208Z,35.83
2019-04-16T11:41:51.282Z,35.93
2019-04-16T11:44:19.409Z,34.93
2019-04-16T11:46:47.547Z,35.75
2019-04-16T11:49:14.399Z,36.29
2019-04-16T11:51:41.846Z,35.42
2019-04-16T11:54:11.805Z,35.93
2019-04-16T11:56:38.508Z,34.44
2019-04-16T11:59:06.004Z,34.12
2019-04-16T12:01:53.776Z,33.83
2019-04-16T12:04:25.766Z,34.08
2019-04-16T12:07:00.440Z,33.53
2019-04-16T12:09:32.079Z,33.78
2019-04-16T12:12:17.688Z,34.17
2019-04-16T12:14:55.708Z,33.97
2019-04-16T12:17:27.525Z,33.21
2019-04-16T12:20:05.297Z,32.62
2019-04-16T12:22:46.131Z,33.11
2019-04-16T12:25:32.781Z,33.16
2019-04-16T12:28:06.363Z,33.24
2019-04-16T12:30:35.371Z,32.77
2019-04-16T12:33:13.989Z,33.71
2019-04-16T12:35:45.160Z,33.32
2019-04-16T12:38:17.858Z,32.61
2019-04-16T12:40:54.883Z,32.29
2019-04-16T12:43:24.056Z,33.15
2019-04-16T12:45:53.869Z,31.73
2019-04-16T12:48:34.514Z,31.98
2019-04-16T12:51:09.635Z,31.22
2019-04-16T12:53:55.288Z,31.57
2019-04-16T12:56:30.288Z,31.21
2019-04-16T12:59:02.194Z,30.93
2019-04-16T13:01:33.259Z,30.95
2019-04-16T13:04:13.704Z,31.02
2019-04-16T13:06:42.464Z,29.92
2019-04-16T13:09:20.258Z,30.54
2019-04-16T13:11:49.327Z,30.84
2019-04-16T13:14:30.830Z,31.48
2019-04-16T13:17:04.439Z,31.58
2019-04-16T13:19:49.629Z,30.95
2019-04-16T13:22:18.209Z,30.89
2019-04-16T13:24:53.289Z,31.49
2019-04-16T13:27:24.902Z,30.86
2019-04-16T13:29:52.161Z,30.45
2019-04-16T13:32:19.190Z,30.53
2019-04-16T13:34:46.125Z,30.20
2019-04-16T13:37:13.830Z,31.36
2019-04-16T13:39:59.303Z,30.61
2019-04-16T13:42:23.488Z,31.18
2019-04-16T13:44:55.257Z,32.16
2019-04-16T13:47:22.590Z,32.78
2019-04-16T13:49:51.386Z,32.80
2019-04-16T13:52:20.599Z,32.97
2019-04-16T13:54:49.051Z,33.40
2019-04-16T13:57:20.251Z,33.72
2019-04-16T14:00:02.969Z,34.92
2019-04-16T14:02:27.425Z,34.76
2019-04-16T14:04:54.171Z,34.78
2019-04-16T14:07:25.208Z,34.99
2019-04-16T14:09:50.553Z,34.89
2019-04-16T14:12:23.036Z,35.29
2019-04-16T14:14:49.472Z,35.06
2019-04-16T14:17:18.603Z,34.91
2019-04-16T14:19:45.632Z,34.43
2019-04-16T14:22:13.260Z,34.58
2019-04-16T14:24:40.387Z,35.29
2019-04-16T14:27:07.728Z,35.03
2019-04-16T14:29:35.838Z,34.96
2019-04-16T14:32:03.879Z,35.26
2019-04-16T14:34:39.220Z,35.29
2019-04-16T14:37:06.027Z,35.05
2019-04-16T14:39:40.542Z,35.25
2019-04-16T14:42:07.983Z,35.36
2019-04-16T14:44:39.691Z,35.46
2019-04-16T14:47:06.631Z,36.03
2019-04-16T14:49:34.044Z,35.31
2019-04-16T14:52:02.123Z,35.42
2019-04-16T14:54:31.637Z,35.50
2019-04-16T14:57:02.576Z,35.93
2019-04-16T14:59:49.854Z,36.27
2019-04-16T15:02:34.827Z,36.30
2019-04-16T15:05:04.104Z,36.40
2019-04-16T15:07:32.924Z,36.71
2019-04-16T15:10:02.911Z,36.69
2019-04-16T15:12:35.672Z,37.19
2019-04-16T15:15:04.595Z,36.58
2019-04-16T15:17:51.774Z,36.66
2019-04-16T15:20:23.179Z,36.17
2019-04-16T15:22:54.908Z,35.83
2019-04-16T15:25:30.294Z,36.17
2019-04-16T15:28:16.972Z,36.26
2019-04-16T15:31:00.808Z,35.89
2019-04-16T15:33:39.058Z,36.37
2019-04-16T15:36:08.890Z,36.48
2019-04-16T15:38:53.719Z,36.57
2019-04-16T15:41:27.910Z,35.86
2019-04-16T15:44:13.327Z,36.16
2019-04-16T15:46:50.569Z,36.62
2019-04-16T15:49:22.886Z,36.05
2019-04-16T15:52:02.067Z,36.34
2019-04-16T15:54:34.124Z,36.28
2019-04-16T15:57:19.163Z,36.66
2019-04-16T15:59:54.427Z,37.06
2019-04-16T16:02:23.083Z,36.76
2019-04-16T16:04:54.964Z,35.98
2019-04-16T16:07:24.276Z,36.33
2019-04-16T16:09:53.365Z,36.33
2019-04-16T16:12:25.592Z,37.21
2019-04-16T16:14:53.267Z,36.08
2019-04-16T16:17:22.628Z,36.33
2019-04-16T16:19:48.854Z,36.88
2019-04-16T16:22:15.903Z,37.41
2019-04-16T16:24:43.084Z,37.08
2019-04-16T16:27:10.024Z,36.76
2019-04-16T16:29:37.208Z,36.95
2019-04-16T16:32:04.112Z,36.79
2019-04-16T16:34:31.521Z,36.88
2019-04-16T16:36:58.425Z,36.55
2019-04-16T16:39:25.636Z,36.60
2019-04-16T16:41:52.627Z,37.25
2019-04-16T16:44:19.640Z,37.38
2019-04-16T16:46:56.457Z,37.00
2019-04-16T16:49:17.665Z,36.78
2019-04-16T16:51:52.215Z,37.29
2019-04-16T16:54:23.622Z,37.50
2019-04-16T16:57:03.541Z,37.87
2019-04-16T16:59:31.704Z,37.24
2019-04-16T17:02:10.051Z,37.57
2019-04-16T17:04:37.251Z,37.68
2019-04-16T17:07:05.192Z,38.18
2019-04-16T17:09:32.861Z,38.63
2019-04-16T17:11:59.687Z,39.09
2019-04-16T17:14:26.883Z,39.14
2019-04-16T17:16:53.812Z,39.69
2019-04-16T17:19:20.609Z,39.96
2019-04-16T17:21:47.550Z,39.65
2019-04-16T17:24:14.629Z,39.95
2019-04-16T17:26:42.670Z,40.34
2019-04-16T17:29:09.646Z,40.51
2019-04-16T17:31:36.762Z,40.75
2019-04-16T17:34:03.720Z,40.91
2019-04-16T17:36:31.047Z,41.18
2019-04-16T17:38:58.305Z,41.14
2019-04-16T17:41:29.776Z,41.40
2019-04-16T17:44:01.906Z,41.42
2019-04-16T17:46:32.485Z,41.63
2019-04-16T17:49:05.667Z,41.84
2019-04-16T17:51:34.730Z,41.84
2019-04-16T17:54:21.333Z,42.06
2019-04-16T17:56:59.039Z,42.16
2019-04-16T17:59:29.565Z,42.56
2019-04-16T18:02:01.089Z,42.60
2019-04-16T18:04:46.372Z,42.67
2019-04-16T18:07:21.144Z,42.66
2019-04-16T18:09:53.477Z,42.93
2019-04-16T18:12:25.047Z,43.07
2019-04-16T18:15:09.526Z,43.23
2019-04-16T18:17:47.399Z,43.56
2019-04-16T18:20:11.604Z,43.62
2019-04-16T18:22:41.884Z,43.83
2019-04-16T18:25:21.362Z,44.14
2019-04-16T18:27:53.062Z,44.27
2019-04-16T18:30:36.786Z,44.44
2019-04-16T18:33:22.925Z,44.73
2019-04-16T18:35:51.785Z,44.92
2019-04-16T18:38:39.236Z,44.99
2019-04-16T18:41:14.170Z,45.20
2019-04-16T18:43:59.411Z,45.36
2019-04-16T18:46:30.977Z,45.50
2019-04-16T18:49:02.189Z,45.84
2019-04-16T18:51:32.862Z,45.98
2019-04-16T18:53:58.244Z,46.23
2019-04-16T18:56:25.110Z,46.29
2019-04-16T18:58:52.528Z,46.35
2019-04-16T19:01:24.640Z,46.58
2019-04-16T19:03:50.523Z,46.78
2019-04-16T19:06:17.294Z,46.87
2019-04-16T19:08:44.180Z,47.02
2019-04-16T19:11:11.061Z,47.13
2019-04-16T19:13:38.302Z,47.38
2019-04-16T19:16:05.231Z,47.73
2019-04-16T19:18:32.236Z,47.81
2019-04-16T19:20:59.500Z,48.04
2019-04-16T19:23:26.656Z,48.38
2019-04-16T19:25:55.443Z,48.49
2019-04-16T19:28:24.639Z,48.74
2019-04-16T19:30:51.947Z,48.79
2019-04-16T19:33:19.493Z,49.11
2019-04-16T19:35:50.988Z,49.16
2019-04-16T19:38:16.017Z,49.35
2019-04-16T19:40:43.295Z,50.00
2019-04-16T19:43:10.650Z,50.10
2019-04-16T19:45:40.655Z,50.46
2019-04-16T19:48:06.932Z,50.94
2019-04-16T19:50:36.505Z,51.03
2019-04-16T19:53:02.553Z,51.57
2019-04-16T19:55:29.740Z,51.64
2019-04-16T19:57:57.964Z,51.93
2019-04-16T20:00:25.130Z,52.08
2019-04-16T20:02:53.093Z,52.37
2019-04-16T20:05:20.723Z,52.39
2019-04-16T20:07:47.700Z,52.43
2019-04-16T20:10:15.290Z,52.71
2019-04-16T20:12:42.153Z,53.02
2019-04-16T20:15:09.782Z,53.28
2019-04-16T20:17:36.755Z,53.46
2019-04-16T20:20:05.590Z,53.88
2019-04-16T20:22:32.536Z,54.75
2019-04-16T20:24:59.990Z,54.73
2019-04-16T20:27:27.009Z,54.63
2019-04-16T20:29:54.047Z,55.08
2019-04-16T20:32:22.006Z,55.17
2019-04-16T20:34:49.116Z,55.57
2019-04-16T20:37:16.655Z,56.08
2019-04-16T20:39:43.946Z,56.14
2019-04-16T20:42:10.908Z,56.18
2019-04-16T20:44:37.761Z,56.32
2019-04-16T20:47:07.991Z,56.24
2019-04-16T20:49:33.724Z,56.47
2019-04-16T20:52:02.177Z,56.64
2019-04-16T20:54:29.598Z,56.95
2019-04-16T20:56:56.700Z,57.40
2019-04-16T20:59:24.229Z,57.29
2019-04-16T21:01:51.094Z,57.89
2019-04-16T21:04:18.094Z,58.04
2019-04-16T21:06:44.934Z,58.60
2019-04-16T21:09:12.242Z,58.66
2019-04-16T21:11:41.031Z,58.55
2019-04-16T21:14:07.924Z,58.81
2019-04-16T21:16:36.158Z,58.70
2019-04-16T21:19:03.290Z,59.11
2019-04-16T21:21:30.262Z,59.20
2019-04-16T21:23:57.137Z,59.43
2019-04-16T21:26:24.275Z,59.64
2019-04-16T21:28:52.865Z,59.72
2019-04-16T21:31:21.815Z,59.75
2019-04-16T21:33:52.324Z,59.82
2019-04-16T21:36:30.033Z,59.85
2019-04-16T21:39:07.707Z,60.53
2019-04-16T21:41:34.865Z,60.52
2019-04-16T21:44:01.691Z,60.43
2019-04-16T21:46:29.238Z,60.83
2019-04-16T21:48:59.831Z,60.99
2019-04-16T21:51:25.562Z,61.19
2019-04-16T21:53:52.359Z,61.50
2019-04-16T21:56:19.130Z,61.87
2019-04-16T21:58:46.627Z,62.17
2019-04-16T22:01:26.132Z,62.37
2019-04-16T22:03:54.754Z,62.69
2019-04-16T22:06:21.644Z,63.00
2019-04-16T22:08:48.466Z,63.32
2019-04-16T22:11:15.622Z,63.49
2019-04-16T22:13:42.630Z,63.73
2019-04-16T22:16:09.420Z,64.04
2019-04-16T22:18:37.692Z,64.38
2019-04-16T22:21:09.818Z,64.91
2019-04-16T22:23:34.793Z,65.02
2019-04-16T22:26:03.981Z,65.39
2019-04-16T22:28:30.993Z,65.59
2019-04-16T22:30:58.735Z,65.85
2019-04-16T22:33:25.844Z,65.99
2019-04-16T22:35:53.658Z,66.25
2019-04-16T22:38:20.840Z,66.58
2019-04-16T22:41:08.576Z,66.82
2019-04-16T22:43:47.016Z,66.88
2019-04-16T22:46:22.615Z,67.64
2019-04-16T22:48:57.149Z,67.37
2019-04-16T22:51:24.890Z,67.61
2019-04-16T22:53:52.634Z,67.74
2019-04-16T22:56:22.193Z,67.96
2019-04-16T22:58:50.160Z,68.17
2019-04-16T23:01:18.490Z,68.33
2019-04-16T23:03:45.513Z,68.46
2019-04-16T23:06:12.594Z,68.64
2019-04-16T23:08:40.572Z,68.80
2019-04-16T23:11:09.062Z,69.06
2019-04-16T23:13:36.482Z,69.36
2019-04-16T23:16:03.758Z,69.57
2019-04-16T23:18:30.784Z,69.82
2019-04-16T23:20:58.481Z,70.08
2019-04-16T23:23:25.390Z,70.34
2019-04-16T23:25:52.286Z,70.52
2019-04-16T23:28:19.803Z,70.78
2019-04-16T23:30:51.289Z,71.33
2019-04-16T23:33:17.684Z,71.55
2019-04-16T23:35:45.460Z,71.77
2019-04-16T23:38:12.345Z,72.25
2019-04-16T23:40:40.864Z,72.73
2019-04-16T23:43:12.695Z,72.89
2019-04-16T23:55:59.541Z,72.67
2019-04-16T23:58:31.312Z,72.95
